sensor_id;sensor_type;location;lat;lon;timestamp;P1;durP1;ratioP1;P2;durP2;ratioP2
70715;SDS011;59053;50.832;12.882;2022-12-29T00:01:48;2.40;;;1.20;;
70715;SDS011;59053;50.832;12.882;2022-12-29T00:04:13;2.95;;;1.30;;
70715;SDS011;59053;50.832;12.882;2022-12-29T00:06:42;2.53;;;1.17;;
70715;SDS011;59053;50.832;12.882;2022-12-29T00:09:16;2.47;;;1.27;;
70715;SDS011;59053;50.832;12.882;2022-12-29T00:11:42;3.03;;;1.20;;
70715;SDS011;59053;50.832;12.882;2022-12-29T00:14:18;2.58;;;1.23;;
70715;SDS011;59053;50.832;12.882;2022-12-29T00:17:02;2.10;;;1.23;;
70715;SDS011;59053;50.832;12.882;2022-12-29T00:19:28;2.40;;;1.20;;
70715;SDS011;59053;50.832;12.882;2022-12-29T00:22:12;2.67;;;1.38;;
70715;SDS011;59053;50.832;12.882;2022-12-29T00:24:56;3.20;;;1.40;;
70715;SDS011;59053;50.832;12.882;2022-12-29T00:27:40;2.63;;;1.40;;
70715;SDS011;59053;50.832;12.882;2022-12-29T00:30:26;2.88;;;1.30;;
70715;SDS011;59053;50.832;12.882;2022-12-29T00:33:17;3.50;;;1.30;;
70715;SDS011;59053;50.832;12.882;2022-12-29T00:36:35;1.98;;;1.10;;
70715;SDS011;59053;50.832;12.882;2022-12-29T00:38:57;2.57;;;1.27;;
70715;SDS011;59053;50.832;12.882;2022-12-29T00:41:45;2.83;;;1.40;;
70715;SDS011;59053;50.832;12.882;2022-12-29T00:44:31;2.78;;;1.30;;
70715;SDS011;59053;50.832;12.882;2022-12-29T00:47:10;2.58;;;1.40;;
70715;SDS011;59053;50.832;12.882;2022-12-29T00:49:38;2.63;;;1.40;;
70715;SDS011;59053;50.832;12.882;2022-12-29T00:52:10;3.80;;;1.50;;
70715;SDS011;59053;50.832;12.882;2022-12-29T00:57:33;3.72;;;1.30;;
70715;SDS011;59053;50.832;12.882;2022-12-29T01:02:33;2.13;;;1.40;;
70715;SDS011;59053;50.832;12.882;2022-12-29T01:04:58;2.00;;;1.30;;
70715;SDS011;59053;50.832;12.882;2022-12-29T01:07:23;1.80;;;1.33;;
70715;SDS011;59053;50.832;12.882;2022-12-29T01:09:48;3.33;;;1.40;;
70715;SDS011;59053;50.832;12.882;2022-12-29T01:12:33;2.28;;;1.27;;
70715;SDS011;59053;50.832;12.882;2022-12-29T01:15:12;3.22;;;1.45;;
70715;SDS011;59053;50.832;12.882;2022-12-29T01:17:47;4.40;;;1.30;;
70715;SDS011;59053;50.832;12.882;2022-12-29T01:20:15;3.47;;;1.38;;
70715;SDS011;59053;50.832;12.882;2022-12-29T01:22:41;5.57;;;1.40;;
70715;SDS011;59053;50.832;12.882;2022-12-29T01:25:10;2.40;;;1.20;;
70715;SDS011;59053;50.832;12.882;2022-12-29T01:27:41;3.90;;;1.40;;
70715;SDS011;59053;50.832;12.882;2022-12-29T01:30:20;2.95;;;1.33;;
70715;SDS011;59053;50.832;12.882;2022-12-29T01:32:58;3.03;;;1.30;;
70715;SDS011;59053;50.832;12.882;2022-12-29T01:35:23;4.57;;;1.33;;
70715;SDS011;59053;50.832;12.882;2022-12-29T01:37:49;3.03;;;1.60;;
70715;SDS011;59053;50.832;12.882;2022-12-29T01:40:24;3.13;;;1.42;;
70715;SDS011;59053;50.832;12.882;2022-12-29T01:42:53;2.55;;;1.38;;
70715;SDS011;59053;50.832;12.882;2022-12-29T01:45:18;4.37;;;1.40;;
70715;SDS011;59053;50.832;12.882;2022-12-29T01:47:53;3.50;;;1.50;;
70715;SDS011;59053;50.832;12.882;2022-12-29T01:50:28;2.80;;;1.30;;
70715;SDS011;59053;50.832;12.882;2022-12-29T01:52:59;2.38;;;1.30;;
70715;SDS011;59053;50.832;12.882;2022-12-29T01:55:31;3.20;;;1.40;;
70715;SDS011;59053;50.832;12.882;2022-12-29T01:58:04;4.67;;;1.30;;
70715;SDS011;59053;50.832;12.882;2022-12-29T02:00:30;3.47;;;1.30;;
70715;SDS011;59053;50.832;12.882;2022-12-29T02:02:55;3.87;;;1.40;;
70715;SDS011;59053;50.832;12.882;2022-12-29T02:05:38;4.80;;;1.33;;
70715;SDS011;59053;50.832;12.882;2022-12-29T02:08:06;4.75;;;1.55;;
70715;SDS011;59053;50.832;12.882;2022-12-29T02:10:35;3.78;;;1.55;;
70715;SDS011;59053;50.832;12.882;2022-12-29T02:29:14;3.78;;;1.38;;
70715;SDS011;59053;50.832;12.882;2022-12-29T02:34:23;2.77;;;1.40;;
70715;SDS011;59053;50.832;12.882;2022-12-29T02:37:08;3.73;;;1.30;;
70715;SDS011;59053;50.832;12.882;2022-12-29T02:39:38;3.42;;;1.50;;
70715;SDS011;59053;50.832;12.882;2022-12-29T02:42:43;2.63;;;1.40;;
70715;SDS011;59053;50.832;12.882;2022-12-29T02:45:41;3.17;;;1.30;;
70715;SDS011;59053;50.832;12.882;2022-12-29T02:48:24;2.35;;;1.50;;
70715;SDS011;59053;50.832;12.882;2022-12-29T02:51:56;3.20;;;1.20;;
70715;SDS011;59053;50.832;12.882;2022-12-29T02:53:54;3.30;;;1.30;;
70715;SDS011;59053;50.832;12.882;2022-12-29T02:56:42;2.95;;;1.30;;
70715;SDS011;59053;50.832;12.882;2022-12-29T02:59:11;3.17;;;1.40;;
70715;SDS011;59053;50.832;12.882;2022-12-29T03:11:52;3.75;;;1.48;;
70715;SDS011;59053;50.832;12.882;2022-12-29T03:20:07;2.63;;;1.30;;
70715;SDS011;59053;50.832;12.882;2022-12-29T03:26:19;2.42;;;1.20;;
70715;SDS011;59053;50.832;12.882;2022-12-29T03:28:50;2.13;;;1.20;;
70715;SDS011;59053;50.832;12.882;2022-12-29T03:31:24;1.83;;;1.10;;
70715;SDS011;59053;50.832;12.882;2022-12-29T03:33:51;1.98;;;1.10;;
70715;SDS011;59053;50.832;12.882;2022-12-29T03:36:23;2.80;;;1.00;;
70715;SDS011;59053;50.832;12.882;2022-12-29T03:39:03;2.78;;;1.30;;
70715;SDS011;59053;50.832;12.882;2022-12-29T03:41:31;4.88;;;1.20;;
70715;SDS011;59053;50.832;12.882;2022-12-29T03:44:00;2.35;;;1.15;;
70715;SDS011;59053;50.832;12.882;2022-12-29T03:52:52;1.85;;;1.10;;
70715;SDS011;59053;50.832;12.882;2022-12-29T03:55:20;3.70;;;1.00;;
70715;SDS011;59053;50.832;12.882;2022-12-29T03:57:46;2.22;;;1.10;;
70715;SDS011;59053;50.832;12.882;2022-12-29T04:00:16;2.38;;;1.15;;
70715;SDS011;59053;50.832;12.882;2022-12-29T04:02:47;4.13;;;1.10;;
70715;SDS011;59053;50.832;12.882;2022-12-29T04:05:20;3.70;;;1.38;;
70715;SDS011;59053;50.832;12.882;2022-12-29T04:07:57;1.90;;;1.10;;
70715;SDS011;59053;50.832;12.882;2022-12-29T04:10:26;3.15;;;1.30;;
70715;SDS011;59053;50.832;12.882;2022-12-29T04:12:57;1.83;;;1.08;;
70715;SDS011;59053;50.832;12.882;2022-12-29T04:18:17;3.42;;;1.10;;
70715;SDS011;59053;50.832;12.882;2022-12-29T04:20:44;1.80;;;1.15;;
70715;SDS011;59053;50.832;12.882;2022-12-29T04:23:31;2.47;;;1.27;;
70715;SDS011;59053;50.832;12.882;2022-12-29T04:25:56;2.08;;;1.33;;
70715;SDS011;59053;50.832;12.882;2022-12-29T04:32:24;2.20;;;1.38;;
70715;SDS011;59053;50.832;12.882;2022-12-29T04:34:57;3.35;;;1.30;;
70715;SDS011;59053;50.832;12.882;2022-12-29T04:37:22;4.38;;;1.30;;
70715;SDS011;59053;50.832;12.882;2022-12-29T04:39:55;2.40;;;1.30;;
70715;SDS011;59053;50.832;12.882;2022-12-29T04:42:20;3.15;;;1.45;;
70715;SDS011;59053;50.832;12.882;2022-12-29T04:44:47;2.60;;;1.40;;
70715;SDS011;59053;50.832;12.882;2022-12-29T04:47:31;2.63;;;1.35;;
70715;SDS011;59053;50.832;12.882;2022-12-29T04:50:22;2.88;;;1.40;;
70715;SDS011;59053;50.832;12.882;2022-12-29T04:53:13;3.53;;;1.47;;
70715;SDS011;59053;50.832;12.882;2022-12-29T04:55:42;3.05;;;1.50;;
70715;SDS011;59053;50.832;12.882;2022-12-29T04:58:32;4.28;;;1.48;;
70715;SDS011;59053;50.832;12.882;2022-12-29T05:01:03;3.72;;;1.20;;
70715;SDS011;59053;50.832;12.882;2022-12-29T05:03:29;4.03;;;1.35;;
70715;SDS011;59053;50.832;12.882;2022-12-29T05:05:55;2.27;;;1.27;;
70715;SDS011;59053;50.832;12.882;2022-12-29T05:08:21;2.75;;;1.38;;
70715;SDS011;59053;50.832;12.882;2022-12-29T05:10:49;3.63;;;1.13;;
70715;SDS011;59053;50.832;12.882;2022-12-29T05:13:16;2.67;;;1.20;;
70715;SDS011;59053;50.832;12.882;2022-12-29T05:15:51;2.57;;;1.33;;
70715;SDS011;59053;50.832;12.882;2022-12-29T05:18:22;3.23;;;1.20;;
70715;SDS011;59053;50.832;12.882;2022-12-29T05:20:48;1.90;;;1.08;;
70715;SDS011;59053;50.832;12.882;2022-12-29T05:23:29;1.92;;;1.23;;
70715;SDS011;59053;50.832;12.882;2022-12-29T05:26:02;2.35;;;1.23;;
70715;SDS011;59053;50.832;12.882;2022-12-29T05:29:09;3.20;;;1.30;;
70715;SDS011;59053;50.832;12.882;2022-12-29T05:31:52;2.70;;;1.50;;
70715;SDS011;59053;50.832;12.882;2022-12-29T05:34:20;3.38;;;1.27;;
70715;SDS011;59053;50.832;12.882;2022-12-29T05:39:56;3.35;;;1.20;;
70715;SDS011;59053;50.832;12.882;2022-12-29T05:45:41;3.10;;;1.30;;
70715;SDS011;59053;50.832;12.882;2022-12-29T05:52:16;2.28;;;1.20;;
70715;SDS011;59053;50.832;12.882;2022-12-29T05:54:42;3.47;;;1.10;;
70715;SDS011;59053;50.832;12.882;2022-12-29T05:57:14;3.92;;;1.25;;
70715;SDS011;59053;50.832;12.882;2022-12-29T06:09:42;2.15;;;1.10;;
70715;SDS011;59053;50.832;12.882;2022-12-29T06:12:08;2.20;;;1.10;;
70715;SDS011;59053;50.832;12.882;2022-12-29T06:14:39;1.40;;;1.00;;
70715;SDS011;59053;50.832;12.882;2022-12-29T06:17:05;2.78;;;1.02;;
70715;SDS011;59053;50.832;12.882;2022-12-29T06:19:32;2.50;;;1.10;;
70715;SDS011;59053;50.832;12.882;2022-12-29T06:22:00;2.17;;;1.10;;
70715;SDS011;59053;50.832;12.882;2022-12-29T06:24:43;1.57;;;1.00;;
70715;SDS011;59053;50.832;12.882;2022-12-29T06:31:28;3.28;;;1.10;;
70715;SDS011;59053;50.832;12.882;2022-12-29T06:40:14;4.40;;;1.10;;
70715;SDS011;59053;50.832;12.882;2022-12-29T06:43:00;2.95;;;1.10;;
70715;SDS011;59053;50.832;12.882;2022-12-29T06:45:57;1.70;;;1.20;;
70715;SDS011;59053;50.832;12.882;2022-12-29T06:48:22;3.30;;;1.40;;
70715;SDS011;59053;50.832;12.882;2022-12-29T06:50:56;2.47;;;1.20;;
70715;SDS011;59053;50.832;12.882;2022-12-29T06:53:22;3.88;;;1.42;;
70715;SDS011;59053;50.832;12.882;2022-12-29T06:55:47;3.23;;;1.30;;
70715;SDS011;59053;50.832;12.882;2022-12-29T06:58:19;1.92;;;1.30;;
70715;SDS011;59053;50.832;12.882;2022-12-29T07:00:45;3.05;;;1.30;;
70715;SDS011;59053;50.832;12.882;2022-12-29T07:03:10;2.20;;;1.30;;
70715;SDS011;59053;50.832;12.882;2022-12-29T07:05:38;3.50;;;1.47;;
70715;SDS011;59053;50.832;12.882;2022-12-29T07:08:04;3.50;;;1.20;;
70715;SDS011;59053;50.832;12.882;2022-12-29T07:10:33;2.75;;;1.30;;
70715;SDS011;59053;50.832;12.882;2022-12-29T07:13:03;4.17;;;1.50;;
70715;SDS011;59053;50.832;12.882;2022-12-29T07:15:28;2.55;;;1.40;;
70715;SDS011;59053;50.832;12.882;2022-12-29T07:17:53;2.63;;;1.50;;
70715;SDS011;59053;50.832;12.882;2022-12-29T07:23:27;3.63;;;1.42;;
70715;SDS011;59053;50.832;12.882;2022-12-29T07:26:06;3.33;;;1.60;;
70715;SDS011;59053;50.832;12.882;2022-12-29T07:28:32;3.57;;;1.40;;
70715;SDS011;59053;50.832;12.882;2022-12-29T07:30:58;3.10;;;1.50;;
70715;SDS011;59053;50.832;12.882;2022-12-29T07:36:19;3.10;;;1.50;;
70715;SDS011;59053;50.832;12.882;2022-12-29T07:42:30;3.95;;;1.38;;
70715;SDS011;59053;50.832;12.882;2022-12-29T07:55:24;2.78;;;1.30;;
70715;SDS011;59053;50.832;12.882;2022-12-29T07:58:57;2.72;;;1.23;;
70715;SDS011;59053;50.832;12.882;2022-12-29T08:05:02;5.03;;;1.30;;
70715;SDS011;59053;50.832;12.882;2022-12-29T08:14:30;5.15;;;1.23;;
70715;SDS011;59053;50.832;12.882;2022-12-29T08:26:28;3.05;;;1.25;;
70715;SDS011;59053;50.832;12.882;2022-12-29T08:28:53;4.03;;;1.40;;
70715;SDS011;59053;50.832;12.882;2022-12-29T08:31:34;2.58;;;1.33;;
70715;SDS011;59053;50.832;12.882;2022-12-29T08:38:10;3.85;;;1.50;;
70715;SDS011;59053;50.832;12.882;2022-12-29T08:41:03;3.33;;;1.48;;
70715;SDS011;59053;50.832;12.882;2022-12-29T08:43:32;1.83;;;1.10;;
70715;SDS011;59053;50.832;12.882;2022-12-29T08:46:05;3.85;;;1.33;;
70715;SDS011;59053;50.832;12.882;2022-12-29T08:48:42;3.37;;;1.30;;
70715;SDS011;59053;50.832;12.882;2022-12-29T08:51:29;3.47;;;1.30;;
70715;SDS011;59053;50.832;12.882;2022-12-29T08:53:58;2.07;;;1.00;;
70715;SDS011;59053;50.832;12.882;2022-12-29T08:59:44;2.90;;;1.20;;
70715;SDS011;59053;50.832;12.882;2022-12-29T09:02:20;2.38;;;1.30;;
70715;SDS011;59053;50.832;12.882;2022-12-29T09:05:00;2.67;;;1.23;;
70715;SDS011;59053;50.832;12.882;2022-12-29T09:07:35;3.73;;;1.33;;
70715;SDS011;59053;50.832;12.882;2022-12-29T09:13:25;3.05;;;1.30;;
70715;SDS011;59053;50.832;12.882;2022-12-29T09:15:59;2.60;;;1.30;;
70715;SDS011;59053;50.832;12.882;2022-12-29T09:18:27;1.75;;;1.15;;
70715;SDS011;59053;50.832;12.882;2022-12-29T09:20:57;2.85;;;1.13;;
70715;SDS011;59053;50.832;12.882;2022-12-29T09:23:28;2.40;;;1.20;;
70715;SDS011;59053;50.832;12.882;2022-12-29T09:25:54;2.40;;;1.20;;
70715;SDS011;59053;50.832;12.882;2022-12-29T09:28:20;3.17;;;1.10;;
70715;SDS011;59053;50.832;12.882;2022-12-29T09:30:49;2.53;;;1.20;;
70715;SDS011;59053;50.832;12.882;2022-12-29T09:33:15;2.80;;;1.27;;
70715;SDS011;59053;50.832;12.882;2022-12-29T09:35:58;4.18;;;1.30;;
70715;SDS011;59053;50.832;12.882;2022-12-29T09:38:59;3.88;;;1.20;;
70715;SDS011;59053;50.832;12.882;2022-12-29T09:41:52;2.10;;;1.10;;
70715;SDS011;59053;50.832;12.882;2022-12-29T09:47:11;2.05;;;1.20;;
70715;SDS011;59053;50.832;12.882;2022-12-29T09:49:43;2.20;;;1.20;;
70715;SDS011;59053;50.832;12.882;2022-12-29T09:52:15;4.90;;;1.40;;
70715;SDS011;59053;50.832;12.882;2022-12-29T09:54:45;4.17;;;1.20;;
70715;SDS011;59053;50.832;12.882;2022-12-29T09:57:15;4.00;;;1.20;;
70715;SDS011;59053;50.832;12.882;2022-12-29T09:59:45;2.67;;;1.20;;
70715;SDS011;59053;50.832;12.882;2022-12-29T10:02:34;2.22;;;1.10;;
70715;SDS011;59053;50.832;12.882;2022-12-29T10:05:04;3.25;;;1.23;;
70715;SDS011;59053;50.832;12.882;2022-12-29T10:07:45;5.20;;;1.20;;
70715;SDS011;59053;50.832;12.882;2022-12-29T10:10:19;2.75;;;1.10;;
70715;SDS011;59053;50.832;12.882;2022-12-29T10:13:00;2.40;;;1.30;;
70715;SDS011;59053;50.832;12.882;2022-12-29T10:21:33;2.40;;;1.13;;
70715;SDS011;59053;50.832;12.882;2022-12-29T10:24:05;3.15;;;1.10;;
70715;SDS011;59053;50.832;12.882;2022-12-29T10:26:43;3.15;;;1.00;;
70715;SDS011;59053;50.832;12.882;2022-12-29T10:29:19;2.03;;;1.10;;
70715;SDS011;59053;50.832;12.882;2022-12-29T10:34:49;5.00;;;1.30;;
70715;SDS011;59053;50.832;12.882;2022-12-29T10:40:40;2.20;;;1.10;;
70715;SDS011;59053;50.832;12.882;2022-12-29T10:43:26;4.05;;;1.10;;
70715;SDS011;59053;50.832;12.882;2022-12-29T10:45:56;3.70;;;1.20;;
70715;SDS011;59053;50.832;12.882;2022-12-29T10:48:23;3.40;;;1.10;;
70715;SDS011;59053;50.832;12.882;2022-12-29T10:50:50;1.80;;;1.10;;
70715;SDS011;59053;50.832;12.882;2022-12-29T10:53:58;2.95;;;1.10;;
70715;SDS011;59053;50.832;12.882;2022-12-29T10:56:35;2.67;;;1.20;;
70715;SDS011;59053;50.832;12.882;2022-12-29T10:59:10;2.13;;;1.13;;
70715;SDS011;59053;50.832;12.882;2022-12-29T11:01:47;4.23;;;1.40;;
70715;SDS011;59053;50.832;12.882;2022-12-29T11:04:29;2.85;;;1.30;;
70715;SDS011;59053;50.832;12.882;2022-12-29T11:06:59;4.72;;;1.30;;
70715;SDS011;59053;50.832;12.882;2022-12-29T11:09:27;1.60;;;1.10;;
70715;SDS011;59053;50.832;12.882;2022-12-29T11:11:53;2.25;;;1.23;;
70715;SDS011;59053;50.832;12.882;2022-12-29T11:14:36;3.50;;;1.30;;
70715;SDS011;59053;50.832;12.882;2022-12-29T11:17:02;4.00;;;1.30;;
70715;SDS011;59053;50.832;12.882;2022-12-29T11:19:37;4.00;;;1.40;;
70715;SDS011;59053;50.832;12.882;2022-12-29T11:22:24;3.58;;;1.30;;
70715;SDS011;59053;50.832;12.882;2022-12-29T11:25:04;1.55;;;1.00;;
70715;SDS011;59053;50.832;12.882;2022-12-29T11:27:32;2.15;;;1.17;;
70715;SDS011;59053;50.832;12.882;2022-12-29T11:29:58;2.97;;;1.43;;
70715;SDS011;59053;50.832;12.882;2022-12-29T11:32:24;3.83;;;1.10;;
70715;SDS011;59053;50.832;12.882;2022-12-29T11:34:55;3.08;;;1.40;;
70715;SDS011;59053;50.832;12.882;2022-12-29T11:43:30;4.75;;;1.60;;
70715;SDS011;59053;50.832;12.882;2022-12-29T11:52:15;4.35;;;1.50;;
70715;SDS011;59053;50.832;12.882;2022-12-29T11:54:51;5.80;;;1.30;;
70715;SDS011;59053;50.832;12.882;2022-12-29T11:57:19;4.50;;;1.50;;
70715;SDS011;59053;50.832;12.882;2022-12-29T11:59:49;3.20;;;1.30;;
70715;SDS011;59053;50.832;12.882;2022-12-29T12:10:58;4.03;;;1.50;;
70715;SDS011;59053;50.832;12.882;2022-12-29T12:13:46;2.43;;;1.20;;
70715;SDS011;59053;50.832;12.882;2022-12-29T12:16:58;4.53;;;1.52;;
70715;SDS011;59053;50.832;12.882;2022-12-29T12:28:46;4.33;;;1.57;;
70715;SDS011;59053;50.832;12.882;2022-12-29T12:34:05;6.50;;;1.42;;
70715;SDS011;59053;50.832;12.882;2022-12-29T12:36:54;3.88;;;1.40;;
70715;SDS011;59053;50.832;12.882;2022-12-29T12:39:26;3.67;;;1.20;;
70715;SDS011;59053;50.832;12.882;2022-12-29T12:42:01;2.93;;;1.50;;
70715;SDS011;59053;50.832;12.882;2022-12-29T12:47:48;3.65;;;1.30;;
70715;SDS011;59053;50.832;12.882;2022-12-29T13:03:30;3.40;;;1.20;;
70715;SDS011;59053;50.832;12.882;2022-12-29T13:06:18;2.33;;;1.38;;
70715;SDS011;59053;50.832;12.882;2022-12-29T13:20:28;3.22;;;1.50;;
70715;SDS011;59053;50.832;12.882;2022-12-29T13:23:01;2.30;;;1.30;;
70715;SDS011;59053;50.832;12.882;2022-12-29T13:30:32;3.80;;;1.50;;
70715;SDS011;59053;50.832;12.882;2022-12-29T13:35:50;3.17;;;1.40;;
70715;SDS011;59053;50.832;12.882;2022-12-29T13:41:36;4.20;;;1.40;;
70715;SDS011;59053;50.832;12.882;2022-12-29T13:44:20;2.83;;;1.50;;
70715;SDS011;59053;50.832;12.882;2022-12-29T13:46:46;3.45;;;1.50;;
70715;SDS011;59053;50.832;12.882;2022-12-29T13:49:25;3.00;;;1.20;;
70715;SDS011;59053;50.832;12.882;2022-12-29T13:58:07;4.17;;;1.20;;
70715;SDS011;59053;50.832;12.882;2022-12-29T14:00:38;2.30;;;1.30;;
70715;SDS011;59053;50.832;12.882;2022-12-29T14:06:16;3.85;;;1.42;;
70715;SDS011;59053;50.832;12.882;2022-12-29T14:08:44;4.25;;;1.40;;
70715;SDS011;59053;50.832;12.882;2022-12-29T14:11:10;3.43;;;1.37;;
70715;SDS011;59053;50.832;12.882;2022-12-29T14:13:45;3.83;;;1.40;;
70715;SDS011;59053;50.832;12.882;2022-12-29T14:19:26;3.33;;;1.30;;
70715;SDS011;59053;50.832;12.882;2022-12-29T14:22:05;4.05;;;1.27;;
70715;SDS011;59053;50.832;12.882;2022-12-29T14:30:01;4.05;;;1.40;;
70715;SDS011;59053;50.832;12.882;2022-12-29T14:38:04;4.18;;;1.70;;
70715;SDS011;59053;50.832;12.882;2022-12-29T14:44:14;3.22;;;1.50;;
70715;SDS011;59053;50.832;12.882;2022-12-29T14:50:15;5.93;;;1.50;;
70715;SDS011;59053;50.832;12.882;2022-12-29T15:08:38;3.53;;;1.27;;
70715;SDS011;59053;50.832;12.882;2022-12-29T15:14:56;1.80;;;1.10;;
70715;SDS011;59053;50.832;12.882;2022-12-29T15:23:57;3.15;;;1.30;;
70715;SDS011;59053;50.832;12.882;2022-12-29T15:26:35;2.75;;;1.20;;
70715;SDS011;59053;50.832;12.882;2022-12-29T15:34:59;5.07;;;1.90;;
70715;SDS011;59053;50.832;12.882;2022-12-29T15:37:44;5.43;;;1.30;;
70715;SDS011;59053;50.832;12.882;2022-12-29T15:40:21;3.85;;;1.20;;
70715;SDS011;59053;50.832;12.882;2022-12-29T15:46:16;3.33;;;1.10;;
70715;SDS011;59053;50.832;12.882;2022-12-29T15:48:41;3.67;;;1.27;;
70715;SDS011;59053;50.832;12.882;2022-12-29T15:53:59;1.50;;;0.90;;
70715;SDS011;59053;50.832;12.882;2022-12-29T16:03:27;2.53;;;0.98;;
70715;SDS011;59053;50.832;12.882;2022-12-29T16:06:27;3.00;;;1.00;;
70715;SDS011;59053;50.832;12.882;2022-12-29T16:09:05;3.07;;;0.90;;
70715;SDS011;59053;50.832;12.882;2022-12-29T16:11:38;3.58;;;1.27;;
70715;SDS011;59053;50.832;12.882;2022-12-29T16:14:08;1.95;;;0.90;;
70715;SDS011;59053;50.832;12.882;2022-12-29T16:16:38;3.22;;;1.20;;
70715;SDS011;59053;50.832;12.882;2022-12-29T16:22:25;1.30;;;0.77;;
70715;SDS011;59053;50.832;12.882;2022-12-29T16:27:59;4.13;;;1.50;;
70715;SDS011;59053;50.832;12.882;2022-12-29T16:31:01;3.33;;;1.30;;
70715;SDS011;59053;50.832;12.882;2022-12-29T16:43:36;5.35;;;1.38;;
70715;SDS011;59053;50.832;12.882;2022-12-29T16:49:58;6.28;;;2.30;;
70715;SDS011;59053;50.832;12.882;2022-12-29T16:55:58;6.25;;;2.47;;
70715;SDS011;59053;50.832;12.882;2022-12-29T16:59:02;8.98;;;3.25;;
70715;SDS011;59053;50.832;12.882;2022-12-29T17:01:45;3.78;;;1.40;;
70715;SDS011;59053;50.832;12.882;2022-12-29T17:07:25;3.30;;;1.17;;
70715;SDS011;59053;50.832;12.882;2022-12-29T17:10:04;3.88;;;1.27;;
70715;SDS011;59053;50.832;12.882;2022-12-29T17:18:56;2.85;;;1.40;;
70715;SDS011;59053;50.832;12.882;2022-12-29T17:21:31;2.20;;;1.40;;
70715;SDS011;59053;50.832;12.882;2022-12-29T17:24:29;2.17;;;1.20;;
70715;SDS011;59053;50.832;12.882;2022-12-29T17:29:46;2.42;;;1.20;;
70715;SDS011;59053;50.832;12.882;2022-12-29T17:32:14;3.70;;;1.55;;
70715;SDS011;59053;50.832;12.882;2022-12-29T17:38:27;3.63;;;1.60;;
70715;SDS011;59053;50.832;12.882;2022-12-29T17:50:54;4.00;;;1.60;;
70715;SDS011;59053;50.832;12.882;2022-12-29T17:53:44;4.90;;;2.10;;
70715;SDS011;59053;50.832;12.882;2022-12-29T18:14:04;5.97;;;2.03;;
70715;SDS011;59053;50.832;12.882;2022-12-29T18:16:35;4.82;;;1.80;;
70715;SDS011;59053;50.832;12.882;2022-12-29T18:19:21;5.32;;;1.90;;
70715;SDS011;59053;50.832;12.882;2022-12-29T18:28:48;3.85;;;1.90;;
70715;SDS011;59053;50.832;12.882;2022-12-29T18:31:50;4.32;;;2.00;;
70715;SDS011;59053;50.832;12.882;2022-12-29T18:34:21;5.10;;;2.00;;
70715;SDS011;59053;50.832;12.882;2022-12-29T18:36:47;4.00;;;1.70;;
70715;SDS011;59053;50.832;12.882;2022-12-29T18:39:25;5.13;;;1.70;;
70715;SDS011;59053;50.832;12.882;2022-12-29T18:42:21;3.00;;;1.70;;
70715;SDS011;59053;50.832;12.882;2022-12-29T18:44:49;4.78;;;1.70;;
70715;SDS011;59053;50.832;12.882;2022-12-29T18:47:22;4.60;;;1.73;;
70715;SDS011;59053;50.832;12.882;2022-12-29T18:49:53;3.80;;;1.58;;
70715;SDS011;59053;50.832;12.882;2022-12-29T18:52:18;4.53;;;1.65;;
70715;SDS011;59053;50.832;12.882;2022-12-29T18:54:45;5.35;;;1.60;;
70715;SDS011;59053;50.832;12.882;2022-12-29T18:57:12;2.60;;;1.30;;
70715;SDS011;59053;50.832;12.882;2022-12-29T18:59:38;2.70;;;1.40;;
70715;SDS011;59053;50.832;12.882;2022-12-29T19:05:29;6.80;;;2.15;;
70715;SDS011;59053;50.832;12.882;2022-12-29T19:07:55;3.00;;;1.30;;
70715;SDS011;59053;50.832;12.882;2022-12-29T19:10:21;1.73;;;1.00;;
70715;SDS011;59053;50.832;12.882;2022-12-29T19:13:01;3.08;;;1.40;;
70715;SDS011;59053;50.832;12.882;2022-12-29T19:19:01;5.47;;;1.00;;
70715;SDS011;59053;50.832;12.882;2022-12-29T19:21:36;2.10;;;1.10;;
70715;SDS011;59053;50.832;12.882;2022-12-29T19:24:02;4.73;;;1.80;;
70715;SDS011;59053;50.832;12.882;2022-12-29T19:27:07;2.97;;;0.98;;
70715;SDS011;59053;50.832;12.882;2022-12-29T19:33:48;2.03;;;1.00;;
70715;SDS011;59053;50.832;12.882;2022-12-29T20:04:54;1.77;;;0.93;;
70715;SDS011;59053;50.832;12.882;2022-12-29T20:07:20;3.00;;;1.00;;
70715;SDS011;59053;50.832;12.882;2022-12-29T20:09:57;2.88;;;1.00;;
70715;SDS011;59053;50.832;12.882;2022-12-29T20:12:24;6.10;;;2.15;;
70715;SDS011;59053;50.832;12.882;2022-12-29T20:15:17;5.68;;;1.70;;
70715;SDS011;59053;50.832;12.882;2022-12-29T20:17:49;2.37;;;1.00;;
70715;SDS011;59053;50.832;12.882;2022-12-29T20:20:19;2.60;;;1.05;;
70715;SDS011;59053;50.832;12.882;2022-12-29T20:22:44;3.37;;;1.30;;
70715;SDS011;59053;50.832;12.882;2022-12-29T20:25:09;3.07;;;1.00;;
70715;SDS011;59053;50.832;12.882;2022-12-29T20:27:35;1.60;;;0.90;;
70715;SDS011;59053;50.832;12.882;2022-12-29T20:30:00;2.33;;;1.03;;
70715;SDS011;59053;50.832;12.882;2022-12-29T20:32:44;2.70;;;0.90;;
70715;SDS011;59053;50.832;12.882;2022-12-29T20:35:15;3.00;;;1.00;;
70715;SDS011;59053;50.832;12.882;2022-12-29T20:37:52;2.28;;;0.93;;
70715;SDS011;59053;50.832;12.882;2022-12-29T20:40:18;3.78;;;1.10;;
70715;SDS011;59053;50.832;12.882;2022-12-29T20:42:43;2.10;;;1.00;;
70715;SDS011;59053;50.832;12.882;2022-12-29T20:45:09;1.70;;;1.00;;
70715;SDS011;59053;50.832;12.882;2022-12-29T20:54:36;4.32;;;1.23;;
70715;SDS011;59053;50.832;12.882;2022-12-29T20:57:04;3.60;;;1.30;;
70715;SDS011;59053;50.832;12.882;2022-12-29T20:59:29;5.22;;;1.23;;
70715;SDS011;59053;50.832;12.882;2022-12-29T21:05:31;3.03;;;0.90;;
70715;SDS011;59053;50.832;12.882;2022-12-29T21:08:13;3.42;;;1.30;;
70715;SDS011;59053;50.832;12.882;2022-12-29T21:10:38;4.50;;;1.10;;
70715;SDS011;59053;50.832;12.882;2022-12-29T21:38:57;2.77;;;0.70;;
70715;SDS011;59053;50.832;12.882;2022-12-29T21:41:23;2.27;;;1.07;;
70715;SDS011;59053;50.832;12.882;2022-12-29T21:43:48;3.08;;;1.10;;
70715;SDS011;59053;50.832;12.882;2022-12-29T21:46:33;5.13;;;1.23;;
70715;SDS011;59053;50.832;12.882;2022-12-29T21:48:58;1.83;;;1.00;;
70715;SDS011;59053;50.832;12.882;2022-12-29T21:51:24;5.03;;;0.97;;
70715;SDS011;59053;50.832;12.882;2022-12-29T21:54:07;6.38;;;1.10;;
70715;SDS011;59053;50.832;12.882;2022-12-29T21:56:51;1.65;;;0.98;;
70715;SDS011;59053;50.832;12.882;2022-12-29T21:59:17;3.00;;;1.00;;
70715;SDS011;59053;50.832;12.882;2022-12-29T22:02:09;2.95;;;0.82;;
70715;SDS011;59053;50.832;12.882;2022-12-29T22:04:55;4.78;;;1.10;;
70715;SDS011;59053;50.832;12.882;2022-12-29T22:07:39;5.33;;;1.17;;
70715;SDS011;59053;50.832;12.882;2022-12-29T22:10:22;3.50;;;1.00;;
70715;SDS011;59053;50.832;12.882;2022-12-29T22:13:06;1.92;;;0.82;;
70715;SDS011;59053;50.832;12.882;2022-12-29T22:15:32;2.97;;;1.07;;
70715;SDS011;59053;50.832;12.882;2022-12-29T22:17:58;6.15;;;1.08;;
70715;SDS011;59053;50.832;12.882;2022-12-29T22:20:24;1.95;;;0.80;;
70715;SDS011;59053;50.832;12.882;2022-12-29T22:22:50;3.00;;;0.97;;
70715;SDS011;59053;50.832;12.882;2022-12-29T22:25:15;2.35;;;1.10;;
70715;SDS011;59053;50.832;12.882;2022-12-29T22:27:41;1.53;;;0.70;;
70715;SDS011;59053;50.832;12.882;2022-12-29T22:30:07;1.10;;;0.73;;
70715;SDS011;59053;50.832;12.882;2022-12-29T22:32:32;7.47;;;0.80;;
70715;SDS011;59053;50.832;12.882;2022-12-29T22:34:57;4.63;;;0.87;;
70715;SDS011;59053;50.832;12.882;2022-12-29T22:37:23;3.00;;;1.10;;
70715;SDS011;59053;50.832;12.882;2022-12-29T22:39:48;3.30;;;1.20;;
70715;SDS011;59053;50.832;12.882;2022-12-29T22:42:13;3.33;;;0.80;;
70715;SDS011;59053;50.832;12.882;2022-12-29T22:44:38;2.77;;;0.90;;